createdAt,value
2022-12-17T00:00:53.044Z,86.45
2022-12-17T00:05:22.295Z,86.46
2022-12-17T00:09:50.241Z,86.42
2022-12-17T00:14:16.182Z,86.53
2022-12-17T00:18:42.532Z,86.65
2022-12-17T00:23:08.039Z,86.84
2022-12-17T00:27:38.643Z,86.83
2022-12-17T00:32:04.804Z,86.83
2022-12-17T00:36:30.735Z,86.66
2022-12-17T00:40:56.203Z,86.82
2022-12-17T00:45:23.822Z,87.08
2022-12-17T00:49:49.121Z,87.31
2022-12-17T00:54:14.578Z,87.04
2022-12-17T00:58:42.840Z,87.42
2022-12-17T01:03:08.896Z,87.16
2022-12-17T01:07:34.560Z,86.94
2022-12-17T01:12:00.152Z,86.92
2022-12-17T01:16:27.945Z,86.75
2022-12-17T01:20:53.792Z,86.74
2022-12-17T01:25:19.436Z,86.57
2022-12-17T01:29:45.053Z,86.72
2022-12-17T01:34:11.071Z,86.56
2022-12-17T01:38:37.758Z,86.77
2022-12-17T01:43:04.918Z,86.59
2022-12-17T01:47:40.830Z,86.72
2022-12-17T01:52:06.958Z,86.78
2022-12-17T01:56:32.428Z,86.82
2022-12-17T02:00:58.031Z,86.88
2022-12-17T02:05:24.271Z,86.80
2022-12-17T02:09:55.893Z,86.85
2022-12-17T02:14:29.306Z,86.76
2022-12-17T02:18:58.981Z,86.70
2022-12-17T02:23:33.019Z,86.78
2022-12-17T02:27:58.578Z,86.73
2022-12-17T02:32:25.272Z,86.62
2022-12-17T02:36:49.410Z,86.49
2022-12-17T02:41:14.835Z,86.45
2022-12-17T02:45:40.677Z,86.66
2022-12-17T02:50:20.802Z,86.76
2022-12-17T02:54:49.683Z,86.70
2022-12-17T02:59:15.302Z,86.63
2022-12-17T03:03:46.197Z,86.67
2022-12-17T03:08:14.567Z,86.75
2022-12-17T03:12:40.313Z,86.71
2022-12-17T03:17:05.741Z,86.81
2022-12-17T03:21:31.470Z,86.90
2022-12-17T03:25:58.050Z,86.78
2022-12-17T03:30:25.141Z,86.77
2022-12-17T03:34:51.161Z,86.75
2022-12-17T03:39:18.795Z,86.65
2022-12-17T03:43:44.508Z,86.97
2022-12-17T03:48:10.241Z,87.02
2022-12-17T03:52:35.860Z,86.94
2022-12-17T03:57:01.592Z,87.08
2022-12-17T04:01:27.232Z,87.07
2022-12-17T04:05:52.975Z,87.14
2022-12-17T04:10:18.302Z,87.25
2022-12-17T04:14:45.029Z,87.09
2022-12-17T04:19:10.271Z,87.12
2022-12-17T04:23:35.796Z,87.11
2022-12-17T04:28:10.506Z,87.01
2022-12-17T04:32:36.582Z,86.85
2022-12-17T04:37:02.062Z,87.00
2022-12-17T04:41:27.502Z,86.94
2022-12-17T04:45:53.077Z,86.71
2022-12-17T04:50:22.562Z,86.66
2022-12-17T04:54:48.818Z,86.64
2022-12-17T04:59:22.421Z,86.71
2022-12-17T05:03:49.129Z,86.75
2022-12-17T05:08:15.093Z,86.70
2022-12-17T05:12:40.343Z,86.66
2022-12-17T05:17:07.777Z,86.56
2022-12-17T05:21:33.797Z,86.68
2022-12-17T05:25:59.020Z,86.50
2022-12-17T05:30:25.497Z,86.47
2022-12-17T05:34:53.041Z,86.30
2022-12-17T05:39:19.959Z,86.58
2022-12-17T05:43:44.984Z,86.37
2022-12-17T05:48:10.114Z,86.61
2022-12-17T05:52:36.115Z,86.67
2022-12-17T05:57:01.504Z,86.58
2022-12-17T06:01:27.464Z,86.40
2022-12-17T06:05:52.616Z,86.46
2022-12-17T06:10:19.767Z,86.38
2022-12-17T06:14:44.881Z,86.54
2022-12-17T06:19:10.577Z,86.33
2022-12-17T06:23:36.291Z,86.31
2022-12-17T06:28:01.599Z,86.48
2022-12-17T06:32:26.970Z,86.33
2022-12-17T06:36:52.858Z,86.34
2022-12-17T06:41:20.841Z,86.19
2022-12-17T06:45:46.726Z,86.23
2022-12-17T06:50:12.782Z,86.25
2022-12-17T06:54:40.472Z,86.25
2022-12-17T06:59:06.696Z,86.25
2022-12-17T07:03:33.102Z,86.15
2022-12-17T07:07:58.487Z,86.46
2022-12-17T07:12:24.482Z,86.47
2022-12-17T07:16:50.072Z,86.33
2022-12-17T07:21:11.419Z,86.41
2022-12-17T07:25:38.559Z,86.18
2022-12-17T07:30:15.928Z,86.06
2022-12-17T07:34:41.755Z,86.03
2022-12-17T07:39:07.512Z,85.87
2022-12-17T07:43:34.181Z,85.87
2022-12-17T07:48:09.541Z,86.07
2022-12-17T07:52:36.135Z,85.99
2022-12-17T07:57:10.406Z,86.00
2022-12-17T08:01:35.537Z,85.74
2022-12-17T08:06:02.071Z,85.60
2022-12-17T08:10:28.867Z,85.53
2022-12-17T08:14:54.585Z,85.29
2022-12-17T08:19:20.397Z,85.26
2022-12-17T08:23:45.610Z,85.09
2022-12-17T08:28:41.558Z,85.18
2022-12-17T08:33:02.862Z,85.07
2022-12-17T08:37:27.986Z,85.06
2022-12-17T08:42:07.733Z,85.16
2022-12-17T08:46:33.175Z,84.80
2022-12-17T08:50:58.676Z,84.65
2022-12-17T08:55:25.317Z,84.38
2022-12-17T08:59:49.786Z,84.77
2022-12-17T09:04:14.913Z,84.71
2022-12-17T09:08:40.231Z,84.52
2022-12-17T09:13:06.262Z,84.61
2022-12-17T09:17:33.905Z,84.57
2022-12-17T09:21:59.274Z,84.29
2022-12-17T09:26:25.564Z,84.51
2022-12-17T09:30:52.900Z,84.15
2022-12-17T09:35:18.070Z,84.24
2022-12-17T09:39:44.400Z,84.13
2022-12-17T09:44:14.024Z,84.04
2022-12-17T09:48:45.602Z,84.02
2022-12-17T09:53:11.578Z,83.71
2022-12-17T09:57:41.133Z,83.63
2022-12-17T10:02:06.756Z,83.55
2022-12-17T10:06:36.414Z,83.66
2022-12-17T10:11:05.243Z,83.50
2022-12-17T10:15:35.361Z,83.58
2022-12-17T10:20:03.665Z,83.38
2022-12-17T10:24:33.979Z,83.62
2022-12-17T10:28:59.707Z,83.69
2022-12-17T10:33:30.362Z,83.90
2022-12-17T10:37:57.742Z,84.04
2022-12-17T10:42:37.545Z,83.91
2022-12-17T10:47:04.054Z,83.88
2022-12-17T10:51:39.470Z,84.14
2022-12-17T10:56:11.151Z,84.27
2022-12-17T11:00:49.445Z,84.12
2022-12-17T11:05:19.174Z,84.08
2022-12-17T11:09:54.245Z,83.62
2022-12-17T11:14:22.084Z,83.73
2022-12-17T11:18:53.074Z,83.86
2022-12-17T11:23:19.974Z,83.74
2022-12-17T11:27:49.712Z,83.75
2022-12-17T11:32:24.913Z,83.79
2022-12-17T11:36:54.440Z,83.66
2022-12-17T11:41:26.917Z,83.88
2022-12-17T11:46:06.448Z,83.91
2022-12-17T11:50:51.052Z,84.24
2022-12-17T11:55:19.246Z,84.11
2022-12-17T11:59:54.232Z,83.92
2022-12-17T12:04:31.594Z,84.10
2022-12-17T12:09:11.577Z,84.14
2022-12-17T12:13:43.065Z,84.23
2022-12-17T12:18:12.255Z,84.16
2022-12-17T12:22:41.632Z,84.03
2022-12-17T12:27:13.628Z,84.19
2022-12-17T12:31:45.522Z,84.18
2022-12-17T12:36:12.131Z,84.31
2022-12-17T12:40:47.777Z,84.35
2022-12-17T12:45:44.860Z,84.16
2022-12-17T12:50:29.350Z,83.88
2022-12-17T12:55:23.848Z,84.05
2022-12-17T12:59:58.629Z,83.89
2022-12-17T13:04:41.650Z,84.01
2022-12-17T13:08:51.487Z,83.96
2022-12-17T13:13:00.065Z,83.96
2022-12-17T13:17:29.052Z,83.99
2022-12-17T13:21:37.437Z,83.93
2022-12-17T13:25:45.685Z,83.82
2022-12-17T13:29:53.840Z,83.84
2022-12-17T13:34:09.464Z,83.91
2022-12-17T13:38:23.342Z,83.64
2022-12-17T13:42:34.751Z,83.97
2022-12-17T13:46:48.105Z,84.18
2022-12-17T13:51:01.353Z,84.00
2022-12-17T13:55:21.436Z,84.24
2022-12-17T13:59:30.215Z,84.24
2022-12-17T14:08:08.437Z,84.52
2022-12-17T14:12:24.024Z,84.24
2022-12-17T14:16:36.615Z,84.56
2022-12-17T14:20:44.654Z,84.74
2022-12-17T14:24:52.632Z,84.64
2022-12-17T14:29:00.975Z,84.62
2022-12-17T14:33:28.351Z,84.83
2022-12-17T14:37:36.592Z,85.07
2022-12-17T14:42:02.805Z,84.82
2022-12-17T14:46:26.023Z,84.81
2022-12-17T14:50:36.719Z,85.03
2022-12-17T14:54:50.039Z,84.99
2022-12-17T14:58:57.877Z,85.09
2022-12-17T15:03:06.916Z,85.29
2022-12-17T15:07:19.394Z,85.24
2022-12-17T15:11:27.469Z,85.20
2022-12-17T15:15:35.423Z,85.05
2022-12-17T15:19:43.222Z,85.19
2022-12-17T15:23:53.233Z,85.31
2022-12-17T15:28:00.947Z,85.45
2022-12-17T15:32:09.695Z,85.19
2022-12-17T15:36:18.336Z,85.19
2022-12-17T15:40:26.436Z,85.34
2022-12-17T15:44:34.388Z,85.31
2022-12-17T15:48:48.009Z,85.19
2022-12-17T15:52:58.110Z,85.34
2022-12-17T15:57:05.870Z,85.05
2022-12-17T16:01:13.896Z,84.93
2022-12-17T16:05:24.220Z,84.96
2022-12-17T16:09:32.315Z,84.90
2022-12-17T16:13:40.931Z,84.87
2022-12-17T16:17:48.692Z,84.83
2022-12-17T16:21:56.682Z,84.71
2022-12-17T16:26:06.964Z,84.73
2022-12-17T16:30:16.886Z,84.91
2022-12-17T16:34:25.028Z,84.85
2022-12-17T16:38:32.701Z,84.95
2022-12-17T16:42:41.067Z,84.79
2022-12-17T16:46:52.623Z,84.94
2022-12-17T16:51:00.829Z,84.66
2022-12-17T16:55:09.837Z,84.85
2022-12-17T16:59:19.207Z,84.85
2022-12-17T17:03:26.830Z,84.68
2022-12-17T17:07:35.156Z,84.60
2022-12-17T17:11:49.486Z,84.57
2022-12-17T17:15:59.745Z,84.51
2022-12-17T17:20:08.881Z,84.53
2022-12-17T17:24:21.142Z,84.78
2022-12-17T17:28:30.669Z,84.80
2022-12-17T17:32:39.912Z,84.67
2022-12-17T17:36:47.718Z,84.66
2022-12-17T17:41:00.950Z,84.58
2022-12-17T17:45:11.810Z,84.50
2022-12-17T17:49:21.218Z,84.66
2022-12-17T17:53:29.276Z,84.75
2022-12-17T17:57:39.698Z,84.64
2022-12-17T18:01:51.769Z,84.58
2022-12-17T18:05:59.223Z,84.53
2022-12-17T18:10:13.645Z,84.59
2022-12-17T18:14:21.644Z,84.52
2022-12-17T18:18:29.412Z,84.59
2022-12-17T18:22:37.633Z,84.57
2022-12-17T18:26:48.037Z,84.65
2022-12-17T18:30:56.200Z,84.61
2022-12-17T18:35:05.251Z,84.71
2022-12-17T18:39:15.673Z,84.58
2022-12-17T18:43:26.318Z,84.51
2022-12-17T18:47:34.356Z,84.34
2022-12-17T18:51:43.777Z,84.33
2022-12-17T18:55:51.509Z,84.69
2022-12-17T18:59:59.711Z,84.51
2022-12-17T19:04:09.632Z,84.52
2022-12-17T19:08:17.097Z,84.64
2022-12-17T19:12:25.122Z,84.71
2022-12-17T19:16:33.712Z,84.48
2022-12-17T19:20:41.697Z,84.46
2022-12-17T19:24:50.039Z,84.59
2022-12-17T19:29:00.456Z,84.65
2022-12-17T19:33:08.630Z,84.82
2022-12-17T19:37:17.094Z,84.57
2022-12-17T19:41:26.112Z,84.58
2022-12-17T19:45:34.666Z,84.69
2022-12-17T19:49:42.503Z,84.67
2022-12-17T19:53:51.427Z,84.68
2022-12-17T19:58:00.311Z,84.73
2022-12-17T20:02:09.023Z,84.70
2022-12-17T20:06:18.787Z,84.82
2022-12-17T20:10:26.894Z,84.82
2022-12-17T20:14:36.255Z,84.57
2022-12-17T20:18:44.406Z,84.75
2022-12-17T20:22:52.356Z,84.14
2022-12-17T20:27:01.271Z,84.74
2022-12-17T20:31:10.549Z,84.49
2022-12-17T20:35:18.922Z,84.67
2022-12-17T20:39:28.279Z,84.53
2022-12-17T20:43:36.295Z,84.50
2022-12-17T20:47:44.809Z,84.40
2022-12-17T20:51:52.731Z,84.23
2022-12-17T20:56:06.457Z,84.12
2022-12-17T21:00:15.917Z,83.98
2022-12-17T21:04:23.643Z,83.86
2022-12-17T21:08:33.025Z,83.85
2022-12-17T21:12:55.138Z,83.52
2022-12-17T21:17:05.086Z,83.82
2022-12-17T21:21:18.251Z,83.70
2022-12-17T21:25:26.032Z,83.69
2022-12-17T21:29:34.775Z,83.66
2022-12-17T21:33:42.495Z,83.77
2022-12-17T21:37:50.880Z,83.62
2022-12-17T21:42:15.937Z,83.31
2022-12-17T21:46:24.201Z,83.40
2022-12-17T21:50:31.939Z,83.14
2022-12-17T21:54:40.120Z,83.16
2022-12-17T21:58:50.009Z,83.38
2022-12-17T22:02:58.132Z,83.29
2022-12-17T22:07:08.354Z,83.49
2022-12-17T22:11:25.749Z,83.47
2022-12-17T22:15:37.647Z,83.32
2022-12-17T22:19:51.334Z,83.51
2022-12-17T22:23:59.581Z,83.56
2022-12-17T22:28:08.270Z,83.56
2022-12-17T22:32:33.983Z,83.68
2022-12-17T22:39:18.259Z,83.44
2022-12-17T22:44:35.708Z,83.44
2022-12-17T22:46:03.512Z,83.42
2022-12-17T22:50:12.873Z,83.24
2022-12-17T22:54:21.493Z,83.62
2022-12-17T22:58:32.041Z,83.51
2022-12-17T23:02:40.083Z,83.68
2022-12-17T23:06:48.491Z,83.57
2022-12-17T23:10:56.089Z,83.78
2022-12-17T23:15:04.598Z,83.66
2022-12-17T23:19:14.855Z,83.50
2022-12-17T23:23:23.186Z,83.39
2022-12-17T23:27:31.358Z,83.27
2022-12-17T23:31:41.509Z,83.22
2022-12-17T23:35:49.527Z,83.30
2022-12-17T23:39:57.556Z,83.27
2022-12-17T23:44:05.852Z,83.31
2022-12-17T23:48:14.157Z,83.49
2022-12-17T23:52:22.602Z,83.68
2022-12-17T23:56:30.873Z,83.78
